Pottsville, Texas
Current Conditions -  °F | °C
As of 9:55 AM on Friday 28 Nov 2014 (Local Time) from KMNZ Reporting Station
Overcast Overcast  
Wind Chill: 55°   Ceiling: 1500
Heat Index: 55°   Visibility: 10mi
Dew Point: 47°   Wind: 12mph
Humidity: 75%   Direction: 200°SSW
Pressure: 30.26"   Gusts: 22mph
Location:  31.67°N, 98.33°W
Report Text: KMNZ 281555Z AUTO 20010G19KT 10SM OVC015 13/09 A3026 RMK AO2 T01290086
Loading
Personal Weather Stations






























Interactive Weather Map New forecast layout! Learn more

10-Day Weather Forecast

Advertisements
Track Severe Weather on mobile